Time;durP1;ratioP1;P1;durP2;ratioP2;P2;SDS_P1;SDS_P2;PMS_P1;PMS_P2;Temp;Humidity;BMP_temperature;BMP_pressure;BME280_temperature;BME280_humidity;BME280_pressure;Samples;Min_cycle;Max_cycle;Signal;HPM_P1;HPM_P2
2022/07/09 00:00:16;;;;;;;4.63;2.10;;;17.10;99.90;;;;;;5092216;28;20858;-87
2022/07/09 00:02:43;;;;;;;5.63;2.60;;;17.10;99.90;;;;;;5056372;28;20386;-87
2022/07/09 00:05:13;;;;;;;4.60;2.17;;;17.10;99.90;;;;;;5072863;28;20392;-87
2022/07/09 00:07:44;;;;;;;4.55;2.42;;;17.10;99.90;;;;;;5072178;28;20503;-88
2022/07/09 00:10:11;;;;;;;3.70;1.98;;;17.00;99.90;;;;;;5089849;28;20786;-87
2022/07/09 00:12:39;;;;;;;3.60;1.90;;;17.00;99.90;;;;;;5072680;28;20417;-88
2022/07/09 00:15:08;;;;;;;5.78;2.20;;;17.00;99.90;;;;;;5089283;28;20408;-87
2022/07/09 00:17:36;;;;;;;4.50;2.35;;;17.00;99.90;;;;;;5093340;28;20390;-87
2022/07/09 00:20:05;;;;;;;3.95;2.20;;;17.10;99.90;;;;;;5073787;28;20421;-87
2022/07/09 00:22:33;;;;;;;4.03;2.50;;;17.00;99.90;;;;;;5088681;28;20884;-87
2022/07/09 00:25:01;;;;;;;3.80;2.30;;;17.00;99.90;;;;;;5083531;28;20739;-87
2022/07/09 00:27:29;;;;;;;4.90;2.40;;;17.00;99.90;;;;;;5078875;28;20479;-86
2022/07/09 00:29:57;;;;;;;4.78;2.30;;;17.00;99.90;;;;;;5072295;28;20390;-88
2022/07/09 00:32:25;;;;;;;4.10;2.40;;;17.00;99.90;;;;;;5089079;28;20386;-87
2022/07/09 00:34:53;;;;;;;3.28;2.47;;;17.00;99.90;;;;;;5074594;28;20401;-87
2022/07/09 00:37:20;;;;;;;3.97;2.50;;;17.00;99.90;;;;;;5072037;28;20402;-87
2022/07/09 00:39:48;;;;;;;3.95;2.40;;;17.00;99.90;;;;;;5089115;28;20915;-87
2022/07/09 00:42:16;;;;;;;3.03;2.40;;;17.00;99.90;;;;;;5089099;28;20460;-88
2022/07/09 00:44:44;;;;;;;4.90;2.42;;;17.00;99.90;;;;;;5088857;28;20400;-89
2022/07/09 00:47:12;;;;;;;4.30;2.30;;;17.00;99.90;;;;;;5073056;28;20459;-88
2022/07/09 00:49:42;;;;;;;3.20;2.45;;;16.90;99.90;;;;;;5090710;28;20456;-88
2022/07/09 00:52:13;;;;;;;2.85;2.20;;;16.90;99.90;;;;;;5093326;28;20388;-88
2022/07/09 00:54:45;;;;;;;3.95;2.28;;;16.90;99.90;;;;;;5092167;28;20488;-88
2022/07/09 00:57:13;;;;;;;4.00;2.57;;;16.90;99.90;;;;;;5108983;28;20391;-87
2022/07/09 00:59:41;;;;;;;3.30;2.45;;;16.90;99.90;;;;;;5108748;28;20388;-89
2022/07/09 01:02:09;;;;;;;3.70;2.30;;;16.90;99.90;;;;;;5086946;28;20484;-87
2022/07/09 01:04:39;;;;;;;3.70;2.40;;;16.90;99.90;;;;;;5087914;28;20418;-88
2022/07/09 01:07:07;;;;;;;4.50;2.85;;;16.90;99.90;;;;;;5079987;28;20398;-88
2022/07/09 01:09:35;;;;;;;5.85;2.78;;;16.90;99.90;;;;;;5089884;28;20410;-87
2022/07/09 01:12:04;;;;;;;4.27;2.50;;;16.90;99.90;;;;;;5092047;28;20388;-89
2022/07/09 01:14:32;;;;;;;3.72;2.47;;;16.90;99.90;;;;;;5083132;28;20400;-88
2022/07/09 01:17:01;;;;;;;2.97;2.30;;;16.80;99.90;;;;;;5081736;28;20397;-87
2022/07/09 01:19:29;;;;;;;3.67;2.17;;;16.90;99.90;;;;;;5072548;28;20435;-87
2022/07/09 01:21:58;;;;;;;3.95;2.30;;;16.80;99.90;;;;;;5070950;28;20391;-87
2022/07/09 01:24:34;;;;;;;4.00;2.38;;;16.80;99.90;;;;;;5072829;28;20398;-87
2022/07/09 01:27:02;;;;;;;3.47;2.28;;;16.80;99.90;;;;;;5072204;28;20444;-87
2022/07/09 01:29:30;;;;;;;3.85;2.30;;;16.80;99.90;;;;;;5108222;28;20547;-87
2022/07/09 01:31:58;;;;;;;4.22;2.30;;;16.80;99.90;;;;;;5072979;28;20389;-87
2022/07/09 01:34:25;;;;;;;4.90;2.60;;;16.80;99.90;;;;;;5071191;28;20966;-87
2022/07/09 01:36:53;;;;;;;3.13;2.35;;;16.70;99.90;;;;;;5087977;28;20382;-87
2022/07/09 01:39:21;;;;;;;3.08;2.45;;;16.70;99.90;;;;;;5088042;28;20414;-87
2022/07/09 01:41:48;;;;;;;4.40;2.67;;;16.70;99.90;;;;;;5071047;28;20417;-86
2022/07/09 01:44:16;;;;;;;4.18;2.42;;;16.80;99.90;;;;;;5071139;28;20885;-87
2022/07/09 01:46:43;;;;;;;3.38;2.60;;;16.70;99.90;;;;;;5070848;28;20397;-87
2022/07/09 01:49:11;;;;;;;6.03;3.13;;;16.70;99.90;;;;;;5070931;28;20460;-87
2022/07/09 01:51:38;;;;;;;5.80;2.80;;;16.60;99.90;;;;;;5070801;28;20791;-87
2022/07/09 01:54:07;;;;;;;6.50;3.30;;;16.70;99.90;;;;;;5070928;28;20394;-87
2022/07/09 01:56:35;;;;;;;4.70;3.00;;;16.70;99.90;;;;;;5087482;28;20408;-87
2022/07/09 01:59:02;;;;;;;3.88;2.63;;;16.70;99.90;;;;;;5072040;28;20752;-87
2022/07/09 02:01:30;;;;;;;4.35;2.67;;;16.70;99.90;;;;;;5071961;28;20849;-87
2022/07/09 02:03:58;;;;;;;4.95;2.88;;;16.70;99.90;;;;;;5070746;28;20508;-87
2022/07/09 02:06:26;;;;;;;3.22;2.75;;;16.70;99.90;;;;;;5055353;28;20443;-87
2022/07/09 02:08:53;;;;;;;3.03;2.50;;;16.70;99.90;;;;;;5092147;28;20449;-88
2022/07/09 02:11:21;;;;;;;3.30;2.60;;;16.60;99.90;;;;;;5092164;28;20392;-87
2022/07/09 02:13:49;;;;;;;3.03;2.55;;;16.60;99.90;;;;;;5074002;28;20395;-87
2022/07/09 02:16:16;;;;;;;6.18;2.88;;;16.60;99.90;;;;;;5090825;28;20479;-87
2022/07/09 02:18:44;;;;;;;5.55;2.70;;;16.60;99.90;;;;;;5090529;28;20396;-88
2022/07/09 02:21:12;;;;;;;4.97;3.00;;;16.50;99.90;;;;;;5074113;28;20384;-88
2022/07/09 02:23:39;;;;;;;4.10;3.30;;;16.50;99.90;;;;;;5073898;28;20446;-88
2022/07/09 02:26:07;;;;;;;3.78;2.90;;;16.30;99.90;;;;;;5073872;28;20882;-87
2022/07/09 02:28:35;;;;;;;5.95;2.95;;;16.40;99.90;;;;;;5073860;28;20396;-87
2022/07/09 02:31:03;;;;;;;5.15;3.08;;;16.50;99.90;;;;;;5090616;28;20392;-87
2022/07/09 02:33:31;;;;;;;4.43;3.00;;;16.50;99.90;;;;;;5073903;28;20393;-88
2022/07/09 02:35:59;;;;;;;5.35;3.17;;;16.40;99.90;;;;;;5090553;28;20834;-86
2022/07/09 02:38:27;;;;;;;4.25;2.88;;;16.40;99.90;;;;;;5091734;28;20450;-86
2022/07/09 02:40:54;;;;;;;3.07;2.70;;;16.50;99.90;;;;;;5073853;28;20955;-87
2022/07/09 02:43:22;;;;;;;3.85;2.97;;;16.40;99.90;;;;;;5073776;28;20385;-87
2022/07/09 02:45:51;;;;;;;3.00;2.70;;;16.30;99.90;;;;;;5106268;28;20481;-87
2022/07/09 02:48:18;;;;;;;3.72;2.90;;;16.20;99.90;;;;;;5094242;28;20878;-86
2022/07/09 02:50:46;;;;;;;2.85;2.38;;;16.00;99.90;;;;;;5093938;28;20410;-87
2022/07/09 02:53:14;;;;;;;4.07;2.70;;;16.00;99.90;;;;;;5094118;28;20714;-87
2022/07/09 02:55:41;;;;;;;3.42;2.70;;;15.90;99.90;;;;;;5093591;28;20536;-86
2022/07/09 02:58:10;;;;;;;3.95;3.25;;;15.90;99.90;;;;;;5094180;28;20880;-87
2022/07/09 03:00:41;;;;;;;4.28;3.10;;;16.00;99.90;;;;;;5090274;28;20383;-87
2022/07/09 03:03:09;;;;;;;5.20;3.03;;;16.10;99.90;;;;;;5074004;28;20826;-87
2022/07/09 03:05:37;;;;;;;2.75;2.30;;;16.20;99.90;;;;;;5073629;28;20392;-86
2022/07/09 03:08:05;;;;;;;2.80;2.42;;;16.20;99.90;;;;;;5073325;28;20767;-87
2022/07/09 03:10:33;;;;;;;3.95;2.40;;;16.10;99.90;;;;;;5073615;28;20928;-86
2022/07/09 03:13:01;;;;;;;2.90;2.28;;;16.10;99.90;;;;;;5091426;28;20420;-87
2022/07/09 03:15:28;;;;;;;3.28;2.47;;;16.00;99.90;;;;;;5073362;28;20404;-86
2022/07/09 03:17:56;;;;;;;2.30;1.98;;;16.00;99.90;;;;;;5073681;28;20383;-86
2022/07/09 03:20:24;;;;;;;3.00;2.00;;;16.10;99.90;;;;;;5073343;28;20449;-86
2022/07/09 03:22:52;;;;;;;3.28;2.22;;;16.00;99.90;;;;;;5073295;28;20389;-87
2022/07/09 03:25:19;;;;;;;3.00;2.20;;;16.10;99.90;;;;;;5091412;28;20736;-86
2022/07/09 03:27:47;;;;;;;3.15;2.45;;;16.20;99.90;;;;;;5089975;28;20454;-86
2022/07/09 03:30:15;;;;;;;3.85;2.38;;;16.20;99.90;;;;;;5073714;28;20412;-86
2022/07/09 03:32:43;;;;;;;2.73;2.47;;;16.20;99.90;;;;;;5059374;28;20792;-86
2022/07/09 03:35:10;;;;;;;3.13;2.28;;;16.10;99.90;;;;;;5076959;28;20483;-86
2022/07/09 03:37:38;;;;;;;3.27;2.17;;;16.10;99.90;;;;;;5094735;28;20384;-85
2022/07/09 03:40:06;;;;;;;2.53;2.20;;;16.10;99.90;;;;;;5077003;28;20916;-87
2022/07/09 03:42:34;;;;;;;3.58;2.50;;;16.20;99.90;;;;;;5094451;28;20750;-86
2022/07/09 03:45:02;;;;;;;5.28;3.30;;;16.20;99.90;;;;;;5094660;28;20785;-88
2022/07/09 03:47:30;;;;;;;4.43;3.50;;;16.10;99.90;;;;;;5094581;28;20395;-89
2022/07/09 03:49:57;;;;;;;3.97;3.40;;;16.00;99.90;;;;;;5094597;28;20433;-87
2022/07/09 03:52:25;;;;;;;5.65;3.70;;;16.00;99.90;;;;;;5076548;28;20851;-87
2022/07/09 03:54:53;;;;;;;4.75;3.58;;;16.00;99.90;;;;;;5094631;28;20379;-87
2022/07/09 03:57:21;;;;;;;5.00;3.97;;;16.00;99.90;;;;;;5094577;28;20433;-87
2022/07/09 03:59:49;;;;;;;5.40;3.58;;;16.10;99.90;;;;;;5076382;28;20403;-87
2022/07/09 04:02:16;;;;;;;5.22;3.70;;;16.10;99.90;;;;;;5094324;28;20390;-87
2022/07/09 04:04:44;;;;;;;4.35;3.53;;;16.00;99.90;;;;;;5109165;28;20379;-86
2022/07/09 04:07:12;;;;;;;4.70;3.42;;;15.90;99.90;;;;;;5105900;28;20752;-85
2022/07/09 04:09:40;;;;;;;5.20;3.28;;;16.00;99.90;;;;;;5072730;28;20469;-88
2022/07/09 04:12:08;;;;;;;5.05;3.15;;;15.90;99.90;;;;;;5073954;28;20435;-86
2022/07/09 04:14:36;;;;;;;3.30;2.70;;;15.90;99.90;;;;;;5072691;28;20382;-88
2022/07/09 04:17:05;;;;;;;4.20;3.53;;;16.10;99.90;;;;;;5072642;28;20968;-88
2022/07/09 04:19:34;;;;;;;3.95;3.13;;;16.00;99.90;;;;;;5073854;28;20880;-88
2022/07/09 04:22:02;;;;;;;4.33;3.27;;;16.10;99.90;;;;;;5073732;28;20465;-87
2022/07/09 04:24:30;;;;;;;4.20;3.15;;;16.10;99.90;;;;;;5072427;28;20393;-87
2022/07/09 04:26:57;;;;;;;3.88;3.15;;;16.10;99.90;;;;;;5073773;28;20443;-87
2022/07/09 04:29:25;;;;;;;4.80;3.42;;;16.20;99.90;;;;;;5072312;28;20442;-87
2022/07/09 04:31:53;;;;;;;4.35;3.35;;;16.30;99.90;;;;;;5073441;28;20394;-86
2022/07/09 04:34:21;;;;;;;4.60;3.33;;;16.30;99.90;;;;;;5072638;28;20392;-86
2022/07/09 04:36:49;;;;;;;5.38;3.50;;;16.20;99.90;;;;;;5072404;28;20413;-87
2022/07/09 04:39:17;;;;;;;4.50;3.40;;;16.30;99.90;;;;;;5105959;28;20431;-85
2022/07/09 04:41:45;;;;;;;3.63;3.10;;;16.30;99.90;;;;;;5072129;28;20382;-88
2022/07/09 04:44:15;;;;;;;3.80;3.00;;;16.30;99.90;;;;;;5071968;28;20383;-86
2022/07/09 04:46:44;;;;;;;5.05;3.63;;;16.30;99.90;;;;;;5071022;28;20439;-87
2022/07/09 04:49:11;;;;;;;4.45;3.20;;;16.30;99.90;;;;;;5062631;28;20392;-87
2022/07/09 04:51:39;;;;;;;4.03;3.22;;;16.30;99.90;;;;;;5085476;28;20392;-87
2022/07/09 04:54:07;;;;;;;3.97;3.23;;;16.30;99.90;;;;;;5035604;28;20388;-86
2022/07/09 04:56:35;;;;;;;5.25;3.65;;;16.30;99.90;;;;;;5085216;28;20404;-87
2022/07/09 04:59:03;;;;;;;4.20;3.28;;;16.30;99.90;;;;;;5053268;28;20434;-88
2022/07/09 05:01:31;;;;;;;3.65;3.03;;;16.40;99.90;;;;;;5068678;28;20399;-89
2022/07/09 05:03:59;;;;;;;3.33;2.80;;;16.30;99.90;;;;;;5060492;28;20387;-87
2022/07/09 05:06:27;;;;;;;4.13;3.28;;;16.10;99.90;;;;;;5057950;28;20396;-86
2022/07/09 05:08:55;;;;;;;4.57;3.23;;;16.20;99.90;;;;;;5100796;28;20493;-86
2022/07/09 05:11:23;;;;;;;5.35;3.35;;;16.20;99.90;;;;;;5113388;28;20390;-87
2022/07/09 05:13:50;;;;;;;4.37;2.80;;;16.30;99.90;;;;;;5078454;28;20393;-86
2022/07/09 05:16:18;;;;;;;3.90;2.72;;;16.30;99.90;;;;;;5095203;28;20394;-87
2022/07/09 05:18:46;;;;;;;3.53;2.38;;;16.20;99.90;;;;;;5095307;28;20430;-88
2022/07/09 05:21:14;;;;;;;4.75;2.70;;;16.20;99.90;;;;;;5095161;28;20393;-88
2022/07/09 05:23:41;;;;;;;2.60;2.40;;;16.20;99.90;;;;;;5093831;28;20386;-83
2022/07/09 05:26:09;;;;;;;3.95;2.90;;;16.20;99.90;;;;;;5090676;28;20388;-88
2022/07/09 05:28:38;;;;;;;2.88;2.67;;;16.20;99.90;;;;;;5087312;28;20485;-83
2022/07/09 05:31:06;;;;;;;2.75;2.55;;;16.10;99.90;;;;;;5105478;28;20484;-84
2022/07/09 05:33:54;;;;;;;2.45;2.13;;;16.20;99.90;;;;;;5105290;28;20388;-84
2022/07/09 05:36:21;;;;;;;2.75;2.25;;;16.20;99.90;;;;;;5105158;28;20403;-84
2022/07/09 05:38:49;;;;;;;3.03;2.40;;;16.10;99.90;;;;;;5105249;28;20388;-83
2022/07/09 05:41:19;;;;;;;4.57;2.30;;;16.20;99.90;;;;;;5070326;28;20384;-83
2022/07/09 05:43:46;;;;;;;4.72;2.85;;;16.30;99.90;;;;;;5105148;28;20862;-83
2022/07/09 05:46:14;;;;;;;3.83;2.47;;;16.40;99.90;;;;;;5087148;28;20500;-83
2022/07/09 05:48:42;;;;;;;2.78;2.53;;;16.40;99.90;;;;;;5105016;28;20435;-83
2022/07/09 05:51:10;;;;;;;3.10;2.58;;;16.40;99.90;;;;;;5104991;28;20381;-83
2022/07/09 05:53:38;;;;;;;2.92;2.50;;;16.40;99.90;;;;;;5105258;28;20388;-83
2022/07/09 05:56:07;;;;;;;3.53;2.50;;;16.30;99.90;;;;;;5092077;28;20397;-83
2022/07/09 05:58:35;;;;;;;3.42;2.55;;;16.40;99.90;;;;;;5123313;28;20903;-83
2022/07/09 06:01:05;;;;;;;3.38;2.45;;;16.30;99.90;;;;;;5119508;28;20474;-89
2022/07/09 06:03:33;;;;;;;3.38;2.53;;;16.40;99.90;;;;;;5104838;28;20405;-83
2022/07/09 06:06:01;;;;;;;4.60;3.00;;;16.40;99.90;;;;;;5125257;28;20452;-83
2022/07/09 06:08:31;;;;;;;2.95;2.60;;;16.40;99.90;;;;;;5090014;28;20398;-82
2022/07/09 06:11:00;;;;;;;3.22;2.80;;;16.30;99.90;;;;;;5106903;28;20401;-82
2022/07/09 06:13:27;;;;;;;3.35;2.90;;;16.20;99.90;;;;;;5090087;28;20841;-83
2022/07/09 06:15:55;;;;;;;5.45;2.60;;;16.30;99.90;;;;;;5106666;28;20410;-83
2022/07/09 06:18:23;;;;;;;2.67;2.40;;;16.40;99.90;;;;;;5125092;28;20903;-82
2022/07/09 06:20:51;;;;;;;4.07;2.60;;;16.30;99.90;;;;;;5124940;28;20382;-83
2022/07/09 06:23:20;;;;;;;3.00;2.70;;;16.30;99.90;;;;;;5107088;28;20383;-82
2022/07/09 06:25:48;;;;;;;4.57;3.05;;;16.30;99.90;;;;;;5106912;28;20390;-83
2022/07/09 06:28:16;;;;;;;4.05;2.70;;;16.30;99.90;;;;;;5107074;28;20463;-82
2022/07/09 06:30:44;;;;;;;3.78;2.58;;;16.40;99.90;;;;;;5089937;28;20450;-83
2022/07/09 06:33:13;;;;;;;3.10;2.53;;;16.50;99.90;;;;;;5090169;28;20474;-83
2022/07/09 06:35:41;;;;;;;2.70;2.20;;;16.50;99.90;;;;;;5124860;28;20389;-83
2022/07/09 06:38:09;;;;;;;4.27;2.13;;;16.60;99.90;;;;;;5106644;28;20452;-82
2022/07/09 06:40:37;;;;;;;2.90;2.00;;;16.50;99.90;;;;;;5106939;28;20379;-83
2022/07/09 06:43:05;;;;;;;2.60;2.10;;;16.20;99.90;;;;;;5101148;28;20383;-87
2022/07/09 06:45:41;;;;;;;3.47;2.50;;;16.20;99.90;;;;;;5087428;28;20411;-82
2022/07/09 06:48:09;;;;;;;3.03;2.05;;;16.20;99.90;;;;;;5106385;28;20463;-82
2022/07/09 06:50:37;;;;;;;2.72;1.80;;;16.20;99.90;;;;;;5106923;28;20778;-82
2022/07/09 06:53:05;;;;;;;3.15;2.03;;;16.20;99.90;;;;;;5118506;28;20392;-83
2022/07/09 06:55:33;;;;;;;2.28;1.50;;;16.30;99.90;;;;;;5093244;28;20469;-82
2022/07/09 06:58:01;;;;;;;3.03;1.52;;;16.20;99.90;;;;;;5119735;28;20402;-82
2022/07/09 07:00:28;;;;;;;2.58;1.33;;;16.20;99.90;;;;;;5124808;28;20374;-82
2022/07/09 07:02:59;;;;;;;1.42;1.30;;;16.30;99.90;;;;;;5106414;28;20464;-82
2022/07/09 07:05:28;;;;;;;1.60;1.30;;;16.30;99.90;;;;;;5089886;28;20394;-82
2022/07/09 07:07:55;;;;;;;1.40;1.17;;;16.40;99.90;;;;;;5126836;28;20390;-82
2022/07/09 07:10:23;;;;;;;1.30;1.00;;;16.50;99.90;;;;;;5108650;28;20416;-82
2022/07/09 07:12:51;;;;;;;1.30;1.20;;;16.50;99.90;;;;;;5115306;28;20385;-82
2022/07/09 07:15:19;;;;;;;1.42;1.10;;;16.50;99.90;;;;;;5110257;28;20391;-82
2022/07/09 07:17:48;;;;;;;1.45;1.10;;;16.50;99.90;;;;;;5128324;28;20424;-82
2022/07/09 07:20:25;;;;;;;1.10;1.00;;;16.60;99.90;;;;;;5110046;28;20402;-82
2022/07/09 07:22:52;;;;;;;1.20;1.00;;;16.60;99.90;;;;;;5128232;28;20390;-82
2022/07/09 07:25:20;;;;;;;2.03;1.10;;;16.70;99.90;;;;;;5128320;28;20446;-82
2022/07/09 07:27:48;;;;;;;1.57;1.10;;;16.80;99.90;;;;;;5121825;28;20429;-82
2022/07/09 07:30:16;;;;;;;4.43;1.10;;;16.70;99.90;;;;;;5081876;28;20388;-87
2022/07/09 07:32:43;;;;;;;1.55;1.15;;;16.60;99.90;;;;;;5098135;28;20436;-89
2022/07/09 07:35:11;;;;;;;2.22;1.20;;;16.60;99.90;;;;;;5091133;28;20407;-82
2022/07/09 07:37:39;;;;;;;1.42;1.10;;;16.60;99.90;;;;;;5107840;28;20890;-82
2022/07/09 07:40:07;;;;;;;2.42;1.20;;;16.60;99.90;;;;;;5105984;28;20387;-81
2022/07/09 07:42:38;;;;;;;2.90;1.13;;;16.60;99.90;;;;;;5106228;28;20380;-81
2022/07/09 07:45:06;;;;;;;2.78;1.17;;;16.60;99.90;;;;;;5106645;28;20392;-83
2022/07/09 07:47:34;;;;;;;2.72;1.20;;;16.50;99.90;;;;;;5105770;28;20422;-82
2022/07/09 07:50:02;;;;;;;1.25;1.00;;;16.60;99.90;;;;;;5088069;28;20419;-81
2022/07/09 07:52:29;;;;;;;2.60;1.27;;;16.60;99.90;;;;;;5089087;28;20404;-81
2022/07/09 07:54:57;;;;;;;1.13;1.02;;;16.60;99.90;;;;;;5105934;28;20893;-82
2022/07/09 07:57:25;;;;;;;2.05;1.10;;;16.70;99.90;;;;;;5104632;28;20404;-89
2022/07/09 07:59:53;;;;;;;2.90;1.30;;;16.80;99.90;;;;;;5103362;28;20400;-83
2022/07/09 08:02:21;;;;;;;1.90;1.10;;;16.90;99.90;;;;;;5113201;28;20929;-84
2022/07/09 08:04:49;;;;;;;2.38;1.10;;;17.00;99.90;;;;;;5108196;28;20387;-84
2022/07/09 08:07:16;;;;;;;2.50;0.95;;;17.00;99.90;;;;;;5105120;28;20408;-84
2022/07/09 08:09:44;;;;;;;2.95;1.20;;;17.20;99.90;;;;;;5087827;28;20894;-82
2022/07/09 08:12:12;;;;;;;1.90;1.40;;;17.10;99.90;;;;;;5106106;28;20476;-83
2022/07/09 08:14:40;;;;;;;2.38;1.02;;;17.00;99.90;;;;;;5105217;28;20826;-83
2022/07/09 08:17:08;;;;;;;2.50;1.20;;;17.00;99.90;;;;;;5104061;28;20472;-82
2022/07/09 08:19:36;;;;;;;1.52;1.10;;;17.00;99.90;;;;;;5105853;28;20376;-82
2022/07/09 08:22:04;;;;;;;1.27;1.10;;;17.00;99.90;;;;;;5105884;28;20825;-83
2022/07/09 08:24:31;;;;;;;2.25;1.33;;;17.10;99.90;;;;;;5105809;28;20909;-82
2022/07/09 08:27:02;;;;;;;2.00;0.90;;;17.30;99.90;;;;;;5105113;28;20423;-83
2022/07/09 08:29:30;;;;;;;2.47;1.00;;;17.30;99.90;;;;;;5088476;28;20477;-82
2022/07/09 08:31:58;;;;;;;1.80;1.00;;;17.30;99.90;;;;;;5088314;28;20392;-82
2022/07/09 08:34:26;;;;;;;2.15;1.00;;;17.20;99.90;;;;;;5106520;28;20392;-83
2022/07/09 08:36:53;;;;;;;1.00;0.90;;;17.30;99.90;;;;;;5088166;28;20397;-83
2022/07/09 08:39:21;;;;;;;1.58;1.00;;;17.50;99.90;;;;;;5088657;28;20419;-82
2022/07/09 08:41:50;;;;;;;1.80;1.00;;;17.50;99.90;;;;;;5105127;28;20856;-82
2022/07/09 08:44:29;;;;;;;2.50;0.80;;;17.60;99.90;;;;;;5105224;28;20433;-82
2022/07/09 08:46:58;;;;;;;1.10;0.90;;;17.50;99.90;;;;;;5105152;28;20388;-82
2022/07/09 08:49:28;;;;;;;1.30;0.90;;;17.50;99.90;;;;;;5106278;28;20392;-83
2022/07/09 08:51:56;;;;;;;2.22;0.80;;;17.50;99.90;;;;;;5088027;28;20392;-83
2022/07/09 08:54:24;;;;;;;1.45;0.90;;;17.50;99.90;;;;;;5088094;28;20449;-83
2022/07/09 08:56:52;;;;;;;3.72;1.05;;;17.60;99.90;;;;;;5105997;28;20406;-82
2022/07/09 08:59:20;;;;;;;1.65;0.90;;;17.70;99.90;;;;;;5106120;28;20376;-82
2022/07/09 09:01:48;;;;;;;2.13;0.90;;;17.50;99.90;;;;;;5104696;28;20432;-83
2022/07/09 09:04:17;;;;;;;1.65;0.80;;;17.40;99.90;;;;;;5104667;28;20395;-82
2022/07/09 09:06:45;;;;;;;3.07;0.90;;;17.50;99.90;;;;;;5104433;28;20405;-82
2022/07/09 09:09:18;;;;;;;1.80;1.00;;;17.70;99.90;;;;;;5088051;28;20384;-82
2022/07/09 09:11:50;;;;;;;2.58;0.85;;;17.70;99.90;;;;;;5104554;28;20435;-82
2022/07/09 09:14:22;;;;;;;1.67;0.93;;;17.70;99.90;;;;;;5104605;28;20395;-82
2022/07/09 09:16:50;;;;;;;1.50;0.88;;;17.60;99.90;;;;;;5087683;28;20832;-82
2022/07/09 09:19:18;;;;;;;1.63;0.83;;;17.30;99.90;;;;;;5087793;28;20387;-82
2022/07/09 09:21:53;;;;;;;1.13;0.83;;;17.20;99.90;;;;;;5105601;28;20463;-82
2022/07/09 09:24:25;;;;;;;1.55;0.90;;;17.10;99.90;;;;;;5105661;28;20384;-82
2022/07/09 09:26:58;;;;;;;0.80;0.80;;;17.30;99.90;;;;;;5087569;28;20385;-83
2022/07/09 09:29:27;;;;;;;1.90;0.90;;;17.60;99.90;;;;;;5104785;28;20388;-82
2022/07/09 09:31:55;;;;;;;0.85;0.80;;;17.80;99.90;;;;;;5087213;28;20399;-82
2022/07/09 09:34:24;;;;;;;0.60;0.60;;;17.90;99.90;;;;;;5105292;28;20388;-89
2022/07/09 09:36:56;;;;;;;1.10;0.60;;;17.60;99.90;;;;;;5101228;28;20394;-84
2022/07/09 09:39:26;;;;;;;1.08;0.77;;;17.50;99.90;;;;;;5119045;27;20395;-82
2022/07/09 09:41:57;;;;;;;1.02;0.80;;;17.70;99.90;;;;;;5104243;28;20395;-83
2022/07/09 09:44:37;;;;;;;1.20;0.70;;;17.90;99.90;;;;;;5122826;28;20810;-80
2022/07/09 09:47:07;;;;;;;1.42;0.80;;;18.10;99.90;;;;;;5104598;28;20386;-78
2022/07/09 09:49:37;;;;;;;2.10;0.70;;;18.20;99.90;;;;;;5107050;28;20405;-82
2022/07/09 09:52:07;;;;;;;0.88;0.85;;;18.40;99.90;;;;;;5124524;28;20394;-82
2022/07/09 09:54:38;;;;;;;1.50;0.80;;;18.60;99.90;;;;;;5123533;28;20409;-83
2022/07/09 09:57:10;;;;;;;1.52;0.70;;;18.60;99.90;;;;;;5120507;28;20399;-87
2022/07/09 09:59:40;;;;;;;1.05;0.70;;;18.60;99.90;;;;;;5103057;28;20726;-84
2022/07/09 10:02:09;;;;;;;0.85;0.80;;;18.60;99.90;;;;;;5104929;28;20390;-86
2022/07/09 10:04:38;;;;;;;1.42;0.70;;;18.60;99.90;;;;;;5121947;28;20807;-83
2022/07/09 10:07:09;;;;;;;1.40;0.60;;;18.80;99.90;;;;;;5121573;28;20485;-88
2022/07/09 10:09:37;;;;;;;1.77;0.68;;;18.90;99.90;;;;;;5100780;28;20884;-87
2022/07/09 10:12:05;;;;;;;1.47;0.70;;;18.80;99.90;;;;;;5080288;28;20427;-85
2022/07/09 10:14:35;;;;;;;1.73;0.70;;;18.70;99.90;;;;;;5095281;28;20801;-89
2022/07/09 10:17:16;;;;;;;1.10;0.60;;;18.50;99.90;;;;;;5095879;28;20396;-88
2022/07/09 10:19:54;;;;;;;1.35;0.55;;;18.50;99.90;;;;;;5076340;28;20807;-89
2022/07/09 10:22:35;;;;;;;1.58;0.60;;;18.40;99.90;;;;;;5095953;28;20403;-86
2022/07/09 10:25:11;;;;;;;1.88;0.40;;;18.40;99.90;;;;;;5093806;28;20380;-86
2022/07/09 10:27:46;;;;;;;0.60;0.40;;;18.50;99.90;;;;;;5097232;28;20387;-88
2022/07/09 10:30:25;;;;;;;1.60;0.50;;;18.60;99.90;;;;;;5113562;28;20407;-87
2022/07/09 10:33:08;;;;;;;1.23;0.52;;;18.50;99.90;;;;;;5114305;28;20439;-89
2022/07/09 10:35:41;;;;;;;1.33;0.50;;;18.40;99.90;;;;;;5095736;28;20726;-88
2022/07/09 10:38:09;;;;;;;1.98;0.45;;;18.60;99.90;;;;;;5115343;28;20429;-88
2022/07/09 10:41:06;;;;;;;2.28;0.45;;;18.70;99.90;;;;;;5098657;28;20416;-88
2022/07/09 10:43:50;;;;;;;1.27;0.50;;;18.90;99.90;;;;;;5118828;28;20443;-86
2022/07/09 10:46:19;;;;;;;0.60;0.40;;;18.90;99.90;;;;;;5118234;28;20859;-88
2022/07/09 10:48:47;;;;;;;0.60;0.40;;;18.80;99.90;;;;;;5100759;28;21026;-89
2022/07/09 10:51:20;;;;;;;1.80;0.50;;;19.00;99.90;;;;;;5117889;28;20386;-88
2022/07/09 10:53:48;;;;;;;1.05;0.47;;;19.10;99.90;;;;;;5100202;28;20412;-89
2022/07/09 10:56:22;;;;;;;1.80;0.30;;;19.20;99.90;;;;;;5099170;28;20394;-89
2022/07/09 10:58:51;;;;;;;0.97;0.40;;;19.10;99.90;;;;;;5098575;28;20471;-86
2022/07/09 11:01:21;;;;;;;1.80;0.40;;;19.20;99.90;;;;;;5117420;28;20436;-88
2022/07/09 11:03:53;;;;;;;1.10;0.40;;;19.50;99.90;;;;;;5082458;28;20371;-88
2022/07/09 11:06:22;;;;;;;2.60;0.50;;;19.50;99.90;;;;;;5101541;28;20387;-85
2022/07/09 11:08:49;;;;;;;1.30;0.50;;;19.50;99.90;;;;;;5102135;28;20402;-86
2022/07/09 11:11:24;;;;;;;1.33;0.50;;;19.80;99.90;;;;;;5103689;28;20398;-83
2022/07/09 11:13:54;;;;;;;1.33;0.40;;;19.90;99.90;;;;;;5106363;28;20451;-88
2022/07/09 11:16:26;;;;;;;1.20;0.38;;;20.00;99.90;;;;;;5103695;28;20393;-87
2022/07/09 11:18:55;;;;;;;2.08;0.77;;;19.70;99.90;;;;;;5100614;28;20466;-88
2022/07/09 11:21:24;;;;;;;2.00;0.47;;;19.50;99.90;;;;;;5099990;28;20405;-88
2022/07/09 11:23:53;;;;;;;1.40;0.30;;;19.30;99.90;;;;;;5120661;28;20386;-83
2022/07/09 11:26:21;;;;;;;2.65;0.40;;;19.50;99.90;;;;;;5106899;28;20379;-86
2022/07/09 11:28:51;;;;;;;1.50;0.30;;;19.80;99.90;;;;;;5107024;28;20406;-83
2022/07/09 11:31:20;;;;;;;0.70;0.40;;;19.90;99.90;;;;;;5108117;28;20398;-81
2022/07/09 11:36:39;;;;;;;1.40;0.47;;;20.10;99.90;;;;;;5107873;28;20418;-81
2022/07/09 11:39:07;;;;;;;1.33;0.35;;;19.90;99.90;;;;;;5106293;28;20396;-82
2022/07/09 11:41:43;;;;;;;0.90;0.30;;;20.00;99.90;;;;;;5107521;28;20437;-82
2022/07/09 11:44:19;;;;;;;1.52;0.40;;;20.10;99.90;;;;;;5089460;28;20388;-83
2022/07/09 11:47:05;;;;;;;2.13;0.40;;;20.40;99.90;;;;;;5107367;28;20395;-82
2022/07/09 11:49:35;;;;;;;1.73;0.30;;;20.40;99.90;;;;;;5109405;28;20379;-82
2022/07/09 11:52:04;;;;;;;0.95;0.30;;;20.40;99.90;;;;;;5108450;28;20387;-79
2022/07/09 11:54:33;;;;;;;3.85;0.50;;;20.40;99.90;;;;;;5127688;28;20465;-82
2022/07/09 11:57:00;;;;;;;2.08;0.40;;;20.40;99.90;;;;;;5106868;28;20440;-84
2022/07/09 11:59:33;;;;;;;1.73;0.60;;;20.40;99.90;;;;;;5114727;28;20385;-82
2022/07/09 12:02:02;;;;;;;0.57;0.30;;;20.60;99.90;;;;;;5100857;28;20394;-86
2022/07/09 12:04:30;;;;;;;3.03;0.50;;;20.60;99.90;;;;;;5100695;28;20433;-86
2022/07/09 12:06:58;;;;;;;0.57;0.40;;;20.70;99.90;;;;;;5102695;28;20453;-84
2022/07/09 12:09:31;;;;;;;2.17;0.40;;;20.70;99.90;;;;;;5089109;28;20818;-87
2022/07/09 12:11:59;;;;;;;1.13;0.40;;;20.80;99.90;;;;;;5099036;28;20396;-85
2022/07/09 12:14:27;;;;;;;2.58;0.32;;;20.80;99.90;;;;;;5103776;28;20484;-86
2022/07/09 12:16:56;;;;;;;0.68;0.32;;;20.90;99.90;;;;;;5089736;28;20458;-86
2022/07/09 12:19:24;;;;;;;2.63;0.47;;;20.90;99.90;;;;;;5086507;28;20402;-85
2022/07/09 12:21:52;;;;;;;1.20;0.40;;;21.00;99.90;;;;;;5086699;28;20443;-85
2022/07/09 12:24:25;;;;;;;1.27;0.40;;;21.10;99.90;;;;;;5093368;28;20392;-86
2022/07/09 12:26:53;;;;;;;1.25;0.40;;;21.20;99.90;;;;;;5077077;28;20474;-87
2022/07/09 12:29:41;;;;;;;1.63;0.40;;;21.40;99.90;;;;;;5103163;28;20401;-85
2022/07/09 12:32:09;;;;;;;1.42;0.40;;;21.50;99.90;;;;;;5070159;28;20396;-86
2022/07/09 12:34:37;;;;;;;0.40;0.35;;;21.60;99.90;;;;;;5091356;28;20434;-86
2022/07/09 12:37:06;;;;;;;0.70;0.40;;;21.40;99.90;;;;;;5103006;28;20448;-85
2022/07/09 12:39:34;;;;;;;1.27;0.50;;;21.30;99.90;;;;;;5091083;28;20390;-85
2022/07/09 12:42:02;;;;;;;0.73;0.30;;;21.30;99.90;;;;;;5089800;28;20383;-85
2022/07/09 12:44:30;;;;;;;1.45;0.40;;;21.40;99.90;;;;;;5094028;28;20455;-84
2022/07/09 12:46:57;;;;;;;0.90;0.40;;;21.40;99.90;;;;;;5113998;28;20447;-87
2022/07/09 12:49:25;;;;;;;1.33;0.40;;;21.60;99.90;;;;;;5114029;28;20387;-86
2022/07/09 12:51:53;;;;;;;1.05;0.50;;;21.50;99.90;;;;;;5113952;28;20426;-84
2022/07/09 12:54:21;;;;;;;1.80;0.40;;;21.60;99.90;;;;;;5095651;28;20456;-84
2022/07/09 12:56:50;;;;;;;1.65;0.40;;;21.50;99.90;;;;;;5113829;28;20883;-86
2022/07/09 12:59:35;;;;;;;2.22;0.60;;;21.20;99.90;;;;;;5095367;28;20955;-86